Time;durP1;ratioP1;P1;durP2;ratioP2;P2;SDS_P1;SDS_P2;PMS_P1;PMS_P2;Temp;Humidity;BMP_temperature;BMP_pressure;BME280_temperature;BME280_humidity;BME280_pressure;Samples;Min_cycle;Max_cycle;Signal;HPM_P1;HPM_P2
2022/01/03 00:01:51;;;;;;;6.30;1.98;;;;;;;;;;5052932;28;20546;-73
2022/01/03 00:04:36;;;;;;;5.65;1.83;;;;;;;;;;5030754;28;20029;-74
2022/01/03 00:07:22;;;;;;;5.28;1.73;;;;;;;;;;5024742;28;20512;-73
2022/01/03 00:10:08;;;;;;;6.60;2.03;;;;;;;;;;5030519;28;20543;-73
2022/01/03 00:12:53;;;;;;;7.05;1.75;;;;;;;;;;5031669;28;20033;-73
2022/01/03 00:15:38;;;;;;;5.05;1.70;;;;;;;;;;5017990;28;20119;-74
2022/01/03 00:18:24;;;;;;;6.38;1.77;;;;;;;;;;5018259;28;20087;-71
2022/01/03 00:21:16;;;;;;;6.07;1.50;;;;;;;;;;5037537;28;20031;-68
2022/01/03 00:24:06;;;;;;;3.80;1.48;;;;;;;;;;5035916;28;20513;-67
2022/01/03 00:26:56;;;;;;;7.28;2.00;;;;;;;;;;5037520;28;20140;-68
2022/01/03 00:29:43;;;;;;;4.30;1.60;;;;;;;;;;5024430;28;20184;-69
2022/01/03 00:32:28;;;;;;;4.60;1.65;;;;;;;;;;5003989;28;20038;-68
2022/01/03 00:35:14;;;;;;;7.75;1.90;;;;;;;;;;5022307;28;20400;-67
2022/01/03 00:38:00;;;;;;;4.10;1.92;;;;;;;;;;5017106;28;20404;-66
2022/01/03 00:40:45;;;;;;;8.05;1.90;;;;;;;;;;5029233;28;20026;-69
2022/01/03 00:43:32;;;;;;;4.80;1.65;;;;;;;;;;5017459;28;20040;-68
2022/01/03 00:46:17;;;;;;;6.55;2.33;;;;;;;;;;5017227;28;20021;-68
2022/01/03 00:49:03;;;;;;;4.30;1.77;;;;;;;;;;5016795;28;20473;-69
2022/01/03 00:51:49;;;;;;;5.15;1.38;;;;;;;;;;5030393;28;20168;-69
2022/01/03 00:54:34;;;;;;;6.85;2.10;;;;;;;;;;5016815;28;20483;-60
2022/01/03 00:57:38;;;;;;;8.05;2.00;;;;;;;;;;5017362;28;20052;-72
2022/01/03 01:00:23;;;;;;;5.85;1.80;;;;;;;;;;5010401;28;20055;-73
2022/01/03 01:03:10;;;;;;;5.88;2.40;;;;;;;;;;5046873;28;20032;-71
2022/01/03 01:05:55;;;;;;;9.07;1.85;;;;;;;;;;5035943;28;20025;-74
2022/01/03 01:08:43;;;;;;;6.63;1.95;;;;;;;;;;5036410;28;20036;-72
2022/01/03 01:11:30;;;;;;;7.40;2.13;;;;;;;;;;5035162;28;20479;-71
2022/01/03 01:14:15;;;;;;;3.25;1.67;;;;;;;;;;5022719;28;20017;-68
2022/01/03 01:17:01;;;;;;;8.75;2.42;;;;;;;;;;5028807;28;20167;-67
2022/01/03 01:19:46;;;;;;;9.23;2.33;;;;;;;;;;5016669;28;20044;-67
2022/01/03 01:22:31;;;;;;;5.28;2.05;;;;;;;;;;5021060;28;20975;-66
2022/01/03 01:28:03;;;;;;;4.43;2.03;;;;;;;;;;5028980;28;20028;-67
2022/01/03 01:30:53;;;;;;;6.20;2.10;;;;;;;;;;5016523;28;20098;-65
2022/01/03 01:33:40;;;;;;;5.72;1.90;;;;;;;;;;5024284;28;20181;-72
2022/01/03 01:36:26;;;;;;;7.90;2.15;;;;;;;;;;5016782;28;20393;-73
2022/01/03 01:39:12;;;;;;;6.30;1.63;;;;;;;;;;5035646;28;20043;-75
2022/01/03 01:42:03;;;;;;;9.45;2.00;;;;;;;;;;5022610;28;20044;-75
2022/01/03 01:44:49;;;;;;;6.18;2.00;;;;;;;;;;5032844;28;20048;-76
2022/01/03 01:47:38;;;;;;;7.60;1.70;;;;;;;;;;5019927;28;20419;-73
2022/01/03 01:50:28;;;;;;;6.20;1.70;;;;;;;;;;5016238;28;20083;-68
2022/01/03 01:53:19;;;;;;;5.57;1.40;;;;;;;;;;5026590;28;20947;-66
2022/01/03 01:56:08;;;;;;;4.43;1.58;;;;;;;;;;5035746;28;20033;-66
2022/01/03 01:59:09;;;;;;;4.53;2.33;;;;;;;;;;5034267;28;20029;-65
2022/01/03 02:02:02;;;;;;;4.75;1.73;;;;;;;;;;5050088;28;20094;-65
2022/01/03 02:04:47;;;;;;;4.93;1.80;;;;;;;;;;5039742;28;20089;-66
2022/01/03 02:07:51;;;;;;;4.57;1.70;;;;;;;;;;5022809;28;20107;-68
2022/01/03 02:10:41;;;;;;;9.27;2.00;;;;;;;;;;5035569;28;20020;-71
2022/01/03 02:13:27;;;;;;;4.75;1.50;;;;;;;;;;5034296;28;20033;-68
2022/01/03 02:16:12;;;;;;;6.10;2.00;;;;;;;;;;5035355;28;20035;-69
2022/01/03 02:18:57;;;;;;;4.00;1.73;;;;;;;;;;5027805;28;20041;-69
2022/01/03 02:21:42;;;;;;;5.78;1.75;;;;;;;;;;5001905;28;20099;-69
2022/01/03 02:24:28;;;;;;;7.47;1.80;;;;;;;;;;5026596;28;20051;-68
2022/01/03 02:27:13;;;;;;;6.28;2.17;;;;;;;;;;5035240;28;20052;-74
2022/01/03 02:29:59;;;;;;;7.65;1.80;;;;;;;;;;5033917;28;20064;-68
2022/01/03 02:32:44;;;;;;;5.50;1.92;;;;;;;;;;5034869;28;20479;-69
2022/01/03 02:35:33;;;;;;;5.93;2.35;;;;;;;;;;5027754;28;20034;-68
2022/01/03 02:38:18;;;;;;;6.57;2.10;;;;;;;;;;5022470;28;20045;-69
2022/01/03 02:41:04;;;;;;;6.95;1.80;;;;;;;;;;5031710;28;20041;-68
2022/01/03 02:43:49;;;;;;;6.63;1.95;;;;;;;;;;5014459;28;20029;-72
2022/01/03 02:46:34;;;;;;;7.07;2.20;;;;;;;;;;5015149;28;20358;-62
2022/01/03 02:49:20;;;;;;;5.63;2.42;;;;;;;;;;5016269;28;20052;-64
2022/01/03 02:52:05;;;;;;;9.43;2.25;;;;;;;;;;5034277;28;20495;-68
2022/01/03 02:54:51;;;;;;;4.30;1.83;;;;;;;;;;5019678;28;20021;-67
2022/01/03 02:57:43;;;;;;;7.72;2.03;;;;;;;;;;5034261;28;20052;-66
2022/01/03 03:00:30;;;;;;;7.03;1.80;;;;;;;;;;5038918;28;20036;-65
2022/01/03 03:03:16;;;;;;;5.82;2.17;;;;;;;;;;5027241;28;20053;-63
2022/01/03 03:06:01;;;;;;;5.57;1.65;;;;;;;;;;5033237;28;20063;-69
2022/01/03 03:08:46;;;;;;;11.32;2.33;;;;;;;;;;5025004;28;20013;-69
2022/01/03 03:11:33;;;;;;;6.20;2.13;;;;;;;;;;5029971;28;20457;-70
2022/01/03 03:14:18;;;;;;;6.45;1.73;;;;;;;;;;5001169;28;20026;-69
2022/01/03 03:17:03;;;;;;;9.02;1.52;;;;;;;;;;5027085;28;20314;-69
2022/01/03 03:20:00;;;;;;;7.70;1.88;;;;;;;;;;5014835;28;20040;-70
2022/01/03 03:22:49;;;;;;;6.22;2.13;;;;;;;;;;5034262;28;20032;-67
2022/01/03 03:25:35;;;;;;;6.45;1.63;;;;;;;;;;5033377;28;20080;-73
2022/01/03 03:28:24;;;;;;;4.22;1.67;;;;;;;;;;5020630;28;20075;-72
2022/01/03 03:31:10;;;;;;;9.68;2.28;;;;;;;;;;5046812;28;20502;-74
2022/01/03 03:33:55;;;;;;;8.68;2.67;;;;;;;;;;5020668;28;20033;-73
2022/01/03 03:36:40;;;;;;;7.57;2.28;;;;;;;;;;5030529;28;20028;-73
2022/01/03 03:39:25;;;;;;;8.82;1.90;;;;;;;;;;5034173;28;20099;-73
2022/01/03 03:42:11;;;;;;;4.18;1.40;;;;;;;;;;5010403;28;20068;-68
2022/01/03 03:44:56;;;;;;;6.45;2.08;;;;;;;;;;5000765;28;20070;-74
2022/01/03 03:47:42;;;;;;;7.20;1.70;;;;;;;;;;5025167;28;20028;-71
2022/01/03 03:50:27;;;;;;;6.50;1.75;;;;;;;;;;5020540;28;20032;-73
2022/01/03 03:53:12;;;;;;;4.97;1.63;;;;;;;;;;5033113;28;20414;-73
2022/01/03 03:55:58;;;;;;;4.65;1.50;;;;;;;;;;5034085;28;20079;-75
2022/01/03 03:58:43;;;;;;;8.38;1.77;;;;;;;;;;5003507;28;20094;-65
2022/01/03 04:01:28;;;;;;;6.63;1.83;;;;;;;;;;5040920;28;20419;-68
2022/01/03 04:04:13;;;;;;;7.40;2.00;;;;;;;;;;5032005;28;20029;-69
2022/01/03 04:06:58;;;;;;;5.82;2.08;;;;;;;;;;5014152;28;20416;-69
2022/01/03 04:09:44;;;;;;;6.72;1.52;;;;;;;;;;5017258;28;20111;-68
2022/01/03 04:12:29;;;;;;;8.73;2.15;;;;;;;;;;5053133;28;20021;-68
2022/01/03 04:15:14;;;;;;;7.47;1.92;;;;;;;;;;5041267;28;20056;-68
2022/01/03 04:17:59;;;;;;;4.72;1.50;;;;;;;;;;5033983;28;20040;-61
2022/01/03 04:20:45;;;;;;;5.75;2.33;;;;;;;;;;5017952;28;20026;-64
2022/01/03 04:23:30;;;;;;;6.15;1.83;;;;;;;;;;5010012;28;20037;-64
2022/01/03 04:26:15;;;;;;;10.10;2.10;;;;;;;;;;5017513;28;20021;-65
2022/01/03 04:29:01;;;;;;;8.68;1.77;;;;;;;;;;5019630;28;20415;-66
2022/01/03 04:31:46;;;;;;;7.55;2.10;;;;;;;;;;5017660;28;20067;-65
2022/01/03 04:34:31;;;;;;;4.50;1.75;;;;;;;;;;5027890;28;20120;-64
2022/01/03 04:37:17;;;;;;;8.40;1.92;;;;;;;;;;5023179;28;20116;-70
2022/01/03 04:40:03;;;;;;;7.40;1.95;;;;;;;;;;5034930;28;20029;-68
2022/01/03 04:42:48;;;;;;;5.03;1.63;;;;;;;;;;5017445;28;20029;-67
2022/01/03 04:45:33;;;;;;;7.25;2.00;;;;;;;;;;5040247;28;20052;-67
2022/01/03 04:48:18;;;;;;;9.73;2.50;;;;;;;;;;5036974;28;20024;-66
2022/01/03 04:51:05;;;;;;;6.53;2.03;;;;;;;;;;5036134;28;20037;-67
2022/01/03 04:53:50;;;;;;;7.75;2.25;;;;;;;;;;5037225;28;20040;-65
2022/01/03 04:56:35;;;;;;;10.02;1.92;;;;;;;;;;5017176;28;20037;-69
2022/01/03 04:59:21;;;;;;;13.95;2.08;;;;;;;;;;5017454;28;20061;-68
2022/01/03 05:02:06;;;;;;;5.68;1.65;;;;;;;;;;5037432;28;20389;-69
2022/01/03 05:04:51;;;;;;;10.50;1.95;;;;;;;;;;5019519;28;20033;-69
2022/01/03 05:07:36;;;;;;;6.78;2.25;;;;;;;;;;5036585;28;20100;-69
2022/01/03 05:10:22;;;;;;;7.25;2.42;;;;;;;;;;5035377;28;20128;-68
2022/01/03 05:13:07;;;;;;;9.43;2.25;;;;;;;;;;5036593;28;20087;-65
2022/01/03 05:15:52;;;;;;;11.98;3.42;;;;;;;;;;5027028;28;20501;-61
2022/01/03 05:18:38;;;;;;;7.93;2.90;;;;;;;;;;5022960;28;20038;-62
2022/01/03 05:21:25;;;;;;;8.68;2.22;;;;;;;;;;5021563;28;20560;-62
2022/01/03 05:24:10;;;;;;;8.35;2.47;;;;;;;;;;5034609;28;20037;-61
2022/01/03 05:26:56;;;;;;;9.85;2.50;;;;;;;;;;5029035;28;20029;-63
2022/01/03 05:29:41;;;;;;;8.23;2.70;;;;;;;;;;5016568;28;20025;-61
2022/01/03 05:32:27;;;;;;;6.70;2.42;;;;;;;;;;5013071;28;20095;-76
2022/01/03 05:35:12;;;;;;;11.13;2.83;;;;;;;;;;5016148;28;20043;-70
2022/01/03 05:37:57;;;;;;;10.20;2.05;;;;;;;;;;5034769;28;20120;-69
2022/01/03 05:40:43;;;;;;;9.65;2.08;;;;;;;;;;5029562;28;20014;-68
2022/01/03 05:43:28;;;;;;;8.30;2.20;;;;;;;;;;5002639;28;20037;-70
2022/01/03 05:46:13;;;;;;;10.90;1.90;;;;;;;;;;5032783;28;20431;-69
2022/01/03 05:48:58;;;;;;;11.30;2.22;;;;;;;;;;5040763;28;20236;-62
2022/01/03 05:51:44;;;;;;;13.90;2.17;;;;;;;;;;5022330;28;20108;-62
2022/01/03 05:54:29;;;;;;;11.75;2.88;;;;;;;;;;5035922;28;20024;-63
2022/01/03 05:57:15;;;;;;;10.18;3.05;;;;;;;;;;5048272;28;20478;-65
2022/01/03 06:00:02;;;;;;;8.77;2.92;;;;;;;;;;5022849;28;20495;-63
2022/01/03 06:02:53;;;;;;;9.48;2.30;;;;;;;;;;5038213;28;20048;-64
2022/01/03 06:08:23;;;;;;;12.88;2.58;;;;;;;;;;5027790;28;20025;-68
2022/01/03 06:11:09;;;;;;;7.18;2.22;;;;;;;;;;5021913;28;20036;-66
2022/01/03 06:13:54;;;;;;;7.50;2.13;;;;;;;;;;5034532;28;20052;-64
2022/01/03 06:16:39;;;;;;;9.23;2.65;;;;;;;;;;5035448;28;20365;-65
2022/01/03 06:19:24;;;;;;;23.60;12.25;;;;;;;;;;5028489;28;20033;-66
2022/01/03 06:22:11;;;;;;;59.25;39.42;;;;;;;;;;5011485;28;20029;-64
2022/01/03 06:24:56;;;;;;;29.73;15.68;;;;;;;;;;5034904;28;20498;-66
2022/01/03 06:27:42;;;;;;;11.50;3.17;;;;;;;;;;5034120;28;20056;-67
2022/01/03 06:30:27;;;;;;;8.77;2.35;;;;;;;;;;5035290;28;20063;-62
2022/01/03 06:33:12;;;;;;;11.20;2.65;;;;;;;;;;5033810;28;20667;-62
2022/01/03 06:35:57;;;;;;;9.18;2.25;;;;;;;;;;5021188;28;20021;-62
2022/01/03 06:38:43;;;;;;;16.35;2.90;;;;;;;;;;5033517;28;20419;-61
2022/01/03 06:41:28;;;;;;;9.45;2.40;;;;;;;;;;5025729;28;20029;-61
2022/01/03 06:44:13;;;;;;;9.77;2.67;;;;;;;;;;5019249;28;20508;-65
2022/01/03 06:46:58;;;;;;;10.35;2.85;;;;;;;;;;5035295;28;20060;-67
2022/01/03 06:49:44;;;;;;;7.85;2.78;;;;;;;;;;5033678;28;20036;-67
2022/01/03 06:52:29;;;;;;;9.18;2.22;;;;;;;;;;5037781;28;20045;-67
2022/01/03 06:55:15;;;;;;;16.02;5.75;;;;;;;;;;5031383;28;20112;-69
2022/01/03 06:58:00;;;;;;;29.58;15.32;;;;;;;;;;5015019;28;20047;-68
2022/01/03 07:00:45;;;;;;;14.00;6.22;;;;;;;;;;5037904;28;20103;-67
2022/01/03 07:03:31;;;;;;;12.27;4.07;;;;;;;;;;5019509;28;20041;-61
2022/01/03 07:06:16;;;;;;;10.85;3.58;;;;;;;;;;5032056;28;20518;-65
2022/01/03 07:09:05;;;;;;;10.23;2.55;;;;;;;;;;5020525;28;20112;-65
2022/01/03 07:11:50;;;;;;;12.10;2.75;;;;;;;;;;5034382;28;20504;-67
2022/01/03 07:20:25;;;;;;;12.88;2.63;;;;;;;;;;5033101;28;20021;-68
2022/01/03 07:23:10;;;;;;;9.18;2.40;;;;;;;;;;5034502;28;20116;-68
2022/01/03 07:25:55;;;;;;;10.63;2.95;;;;;;;;;;5041550;28;20029;-62
2022/01/03 07:28:41;;;;;;;7.72;3.00;;;;;;;;;;5034660;28;20040;-61
2022/01/03 07:31:27;;;;;;;7.07;2.28;;;;;;;;;;5014051;28;20071;-64
2022/01/03 07:34:12;;;;;;;11.98;2.78;;;;;;;;;;5014488;28;20055;-65
2022/01/03 07:36:57;;;;;;;11.68;2.70;;;;;;;;;;5028237;28;20389;-63
2022/01/03 07:39:43;;;;;;;11.65;4.13;;;;;;;;;;5034441;28;20120;-68
2022/01/03 07:42:28;;;;;;;13.82;3.15;;;;;;;;;;5017802;28;20033;-68
2022/01/03 07:45:13;;;;;;;10.20;3.03;;;;;;;;;;5004703;28;20029;-67
2022/01/03 07:47:58;;;;;;;72.78;44.88;;;;;;;;;;5031001;28;20558;-68
2022/01/03 07:50:44;;;;;;;76.03;54.72;;;;;;;;;;5018247;28;20109;-67
2022/01/03 07:53:29;;;;;;;18.73;7.07;;;;;;;;;;5018367;28;20041;-67
2022/01/03 07:56:14;;;;;;;11.07;3.65;;;;;;;;;;5020954;28;20025;-68
2022/01/03 07:59:00;;;;;;;18.05;2.80;;;;;;;;;;5042777;28;20111;-69
2022/01/03 08:01:45;;;;;;;12.35;2.63;;;;;;;;;;5048563;28;20021;-61
2022/01/03 08:04:31;;;;;;;14.35;3.80;;;;;;;;;;5040729;28;20392;-61
2022/01/03 08:07:16;;;;;;;15.10;2.53;;;;;;;;;;5030190;28;20025;-61
2022/01/03 08:10:04;;;;;;;14.90;3.50;;;;;;;;;;5004213;28;20516;-60
2022/01/03 08:12:49;;;;;;;9.40;2.92;;;;;;;;;;5020700;28;20077;-61
2022/01/03 08:15:34;;;;;;;12.57;3.40;;;;;;;;;;5017958;28;20090;-61
2022/01/03 08:18:19;;;;;;;14.48;3.25;;;;;;;;;;5009783;28;20130;-72
2022/01/03 08:21:05;;;;;;;13.18;3.10;;;;;;;;;;5031746;28;20014;-71
2022/01/03 08:23:51;;;;;;;43.38;26.15;;;;;;;;;;5032041;28;20115;-73
2022/01/03 08:26:38;;;;;;;26.83;13.60;;;;;;;;;;5023833;28;20068;-72
2022/01/03 08:29:24;;;;;;;12.55;4.50;;;;;;;;;;5037608;28;20041;-73
2022/01/03 08:32:10;;;;;;;14.15;3.78;;;;;;;;;;5003826;28;20029;-71
2022/01/03 08:34:55;;;;;;;9.77;3.53;;;;;;;;;;5034760;28;20046;-69
2022/01/03 08:37:40;;;;;;;14.52;3.67;;;;;;;;;;5020504;28;20079;-74
2022/01/03 08:40:26;;;;;;;11.52;3.22;;;;;;;;;;5023654;28;20035;-74
2022/01/03 08:43:11;;;;;;;12.90;2.70;;;;;;;;;;5019188;28;20021;-73
2022/01/03 08:45:56;;;;;;;10.02;2.90;;;;;;;;;;5037383;28;20113;-73
2022/01/03 08:48:41;;;;;;;15.60;4.53;;;;;;;;;;5022150;28;20395;-72
2022/01/03 08:51:27;;;;;;;37.42;20.55;;;;;;;;;;5023584;28;20029;-76
2022/01/03 08:54:12;;;;;;;12.45;4.00;;;;;;;;;;5035656;28;20025;-66
2022/01/03 08:56:57;;;;;;;11.38;2.70;;;;;;;;;;5037040;28;20123;-67
2022/01/03 08:59:42;;;;;;;12.52;3.90;;;;;;;;;;5035568;28;20401;-66
2022/01/03 09:02:28;;;;;;;10.07;2.92;;;;;;;;;;5037131;28;20047;-67
2022/01/03 09:05:13;;;;;;;13.43;3.63;;;;;;;;;;5035827;28;20424;-67
2022/01/03 09:07:58;;;;;;;11.48;3.55;;;;;;;;;;5023021;28;20040;-67
2022/01/03 09:10:43;;;;;;;7.15;2.63;;;;;;;;;;5049351;28;20025;-67
2022/01/03 09:13:29;;;;;;;6.72;2.67;;;;;;;;;;5022885;28;20029;-63
2022/01/03 09:16:14;;;;;;;21.55;4.43;;;;;;;;;;5029210;28;20021;-74
2022/01/03 09:19:00;;;;;;;12.43;3.47;;;;;;;;;;5016504;28;20041;-73
2022/01/03 09:21:45;;;;;;;9.85;2.50;;;;;;;;;;5016613;28;20448;-72
2022/01/03 09:24:43;;;;;;;12.88;3.10;;;;;;;;;;5016428;28;20120;-73
2022/01/03 09:30:33;;;;;;;13.95;3.20;;;;;;;;;;5016656;28;20029;-68
2022/01/03 09:33:18;;;;;;;11.05;3.17;;;;;;;;;;5027665;28;20056;-65
2022/01/03 09:36:03;;;;;;;12.65;2.85;;;;;;;;;;5021579;28;20029;-66
2022/01/03 09:38:49;;;;;;;12.50;2.72;;;;;;;;;;5019256;28;20130;-64
2022/01/03 09:41:34;;;;;;;10.43;2.75;;;;;;;;;;5028337;28;20458;-65
2022/01/03 09:44:21;;;;;;;9.68;2.78;;;;;;;;;;5016220;28;20555;-65
2022/01/03 09:47:08;;;;;;;7.85;2.90;;;;;;;;;;5024205;28;20401;-65
2022/01/03 09:49:54;;;;;;;6.18;2.35;;;;;;;;;;5016092;28;20029;-65
2022/01/03 09:52:41;;;;;;;8.85;1.80;;;;;;;;;;5027413;28;20037;-70
2022/01/03 09:55:26;;;;;;;9.35;2.47;;;;;;;;;;5002098;28;20588;-69
2022/01/03 09:58:14;;;;;;;9.13;2.05;;;;;;;;;;5015586;28;20044;-68
2022/01/03 10:01:00;;;;;;;14.38;2.47;;;;;;;;;;5031683;28;20527;-68
2022/01/03 10:03:49;;;;;;;11.68;2.20;;;;;;;;;;5041960;28;20024;-69
2022/01/03 10:06:34;;;;;;;12.73;3.50;;;;;;;;;;5040778;28;20571;-62
2022/01/03 10:09:20;;;;;;;10.30;2.50;;;;;;;;;;5035589;28;20167;-63
2022/01/03 10:12:08;;;;;;;7.47;2.75;;;;;;;;;;5034634;28;20056;-68
2022/01/03 10:14:54;;;;;;;5.75;1.80;;;;;;;;;;5021870;28;20021;-65
2022/01/03 10:17:41;;;;;;;7.28;1.92;;;;;;;;;;5028598;28;20040;-70
2022/01/03 10:20:28;;;;;;;5.65;1.88;;;;;;;;;;5015756;28;20025;-66
2022/01/03 10:23:15;;;;;;;7.88;1.92;;;;;;;;;;5021210;28;20462;-67
2022/01/03 10:26:14;;;;;;;8.48;2.40;;;;;;;;;;5021567;28;20040;-64
2022/01/03 10:29:11;;;;;;;7.93;2.03;;;;;;;;;;5034588;28;20079;-67
2022/01/03 10:31:58;;;;;;;7.18;2.15;;;;;;;;;;5035591;28;20028;-66
2022/01/03 10:34:43;;;;;;;12.65;2.63;;;;;;;;;;5015677;28;20025;-66
2022/01/03 10:37:33;;;;;;;5.45;2.15;;;;;;;;;;5031730;28;20032;-68
2022/01/03 10:40:28;;;;;;;8.63;3.03;;;;;;;;;;5035059;28;20041;-70
2022/01/03 10:43:15;;;;;;;15.05;6.97;;;;;;;;;;5020149;28;20083;-65
2022/01/03 10:46:14;;;;;;;11.13;2.35;;;;;;;;;;5021178;28;20506;-68
2022/01/03 10:48:59;;;;;;;;;;;;;;;;;;5014336;28;20040;-64
2022/01/03 10:51:45;;;;;;;9.85;1.80;;;;;;;;;;5001486;28;20246;-63
2022/01/03 10:54:30;;;;;;;8.32;2.28;;;;;;;;;;5021728;28;20018;-64
2022/01/03 10:57:16;;;;;;;12.50;2.42;;;;;;;;;;5014902;28;20032;-64
2022/01/03 11:00:18;;;;;;;9.60;1.92;;;;;;;;;;5031467;28;20032;-64
2022/01/03 11:03:08;;;;;;;9.75;2.30;;;;;;;;;;5042915;28;20496;-63
2022/01/03 11:05:57;;;;;;;11.05;2.45;;;;;;;;;;5034841;28;20055;-63
2022/01/03 11:11:48;;;;;;;11.30;4.95;;;;;;;;;;5036489;28;20135;-62
2022/01/03 11:14:38;;;;;;;9.00;2.08;;;;;;;;;;5027057;28;20026;-62
2022/01/03 11:17:25;;;;;;;11.95;2.97;;;;;;;;;;5014723;28;20029;-63
2022/01/03 11:20:19;;;;;;;8.95;2.40;;;;;;;;;;5025308;28;20020;-70
2022/01/03 11:23:05;;;;;;;6.72;2.40;;;;;;;;;;5029333;28;20029;-67
2022/01/03 11:25:53;;;;;;;9.25;2.47;;;;;;;;;;5028399;28;20068;-76
2022/01/03 11:28:40;;;;;;;10.50;2.35;;;;;;;;;;5035434;28;20360;-73
2022/01/03 11:31:25;;;;;;;6.28;1.95;;;;;;;;;;5028543;28;20129;-73
2022/01/03 11:34:11;;;;;;;5.88;2.00;;;;;;;;;;5016060;28;20079;-73
2022/01/03 11:36:57;;;;;;;8.20;2.22;;;;;;;;;;5015459;28;20036;-74
2022/01/03 11:39:45;;;;;;;12.27;2.67;;;;;;;;;;5025779;28;20025;-72
2022/01/03 11:42:32;;;;;;;8.35;2.25;;;;;;;;;;5022239;28;20030;-73
2022/01/03 11:45:18;;;;;;;9.32;2.95;;;;;;;;;;5022598;28;20029;-75
2022/01/03 11:48:03;;;;;;;13.85;4.70;;;;;;;;;;5001781;28;20033;-71
2022/01/03 11:50:52;;;;;;;12.00;4.05;;;;;;;;;;5015901;28;20047;-73
2022/01/03 11:53:43;;;;;;;9.73;2.53;;;;;;;;;;5015200;28;20029;-75
2022/01/03 11:56:30;;;;;;;8.02;2.10;;;;;;;;;;5023911;28;20037;-74
2022/01/03 12:05:05;;;;;;;5.90;2.00;;;;;;;;;;5015010;28;20061;-70
2022/01/03 12:07:54;;;;;;;6.25;2.00;;;;;;;;;;5030899;28;20025;-68
2022/01/03 12:10:43;;;;;;;10.00;3.17;;;;;;;;;;5020345;28;20047;-68
2022/01/03 12:13:47;;;;;;;4.05;1.30;;;;;;;;;;5040957;28;20254;-68
2022/01/03 12:16:52;;;;;;;5.05;1.60;;;;;;;;;;5032400;28;20423;-65
2022/01/03 12:19:37;;;;;;;3.25;1.67;;;;;;;;;;5020550;28;20069;-74
2022/01/03 12:22:22;;;;;;;4.68;1.48;;;;;;;;;;5032493;28;20041;-75
2022/01/03 12:25:22;;;;;;;7.97;1.55;;;;;;;;;;5034232;28;20023;-75
2022/01/03 12:28:10;;;;;;;8.27;1.55;;;;;;;;;;5033958;28;20373;-75
2022/01/03 12:30:56;;;;;;;7.15;1.83;;;;;;;;;;5017278;28;20084;-78
2022/01/03 12:33:41;;;;;;;4.03;1.55;;;;;;;;;;5013238;28;20087;-75
2022/01/03 12:36:27;;;;;;;4.97;1.58;;;;;;;;;;5019502;28;20519;-67
2022/01/03 12:39:12;;;;;;;5.85;1.75;;;;;;;;;;5036131;28;20056;-65
2022/01/03 12:41:58;;;;;;;5.43;1.50;;;;;;;;;;5027886;28;20033;-65
2022/01/03 12:44:44;;;;;;;6.65;1.70;;;;;;;;;;5021080;28;20033;-67
2022/01/03 12:47:36;;;;;;;7.00;2.22;;;;;;;;;;5020797;28;20025;-67
2022/01/03 12:50:22;;;;;;;4.10;1.55;;;;;;;;;;5023341;28;20483;-66
2022/01/03 12:53:09;;;;;;;10.93;4.53;;;;;;;;;;5021686;28;20024;-69
2022/01/03 12:55:54;;;;;;;6.55;1.95;;;;;;;;;;5023685;28;20036;-78
2022/01/03 12:58:41;;;;;;;6.10;1.80;;;;;;;;;;5035860;28;20032;-76
2022/01/03 13:01:29;;;;;;;5.30;1.77;;;;;;;;;;5049924;28;20027;-75
2022/01/03 13:04:19;;;;;;;8.30;2.45;;;;;;;;;;5030776;28;20496;-76
2022/01/03 13:07:05;;;;;;;4.72;1.98;;;;;;;;;;5036874;28;20049;-78
2022/01/03 13:09:50;;;;;;;6.75;1.65;;;;;;;;;;5022273;28;20033;-76
2022/01/03 13:12:42;;;;;;;7.60;1.83;;;;;;;;;;5023125;28;20028;-74
2022/01/03 13:15:27;;;;;;;7.07;1.95;;;;;;;;;;5034091;28;20274;-67
2022/01/03 13:18:13;;;;;;;8.40;2.00;;;;;;;;;;5040007;28;20029;-68
2022/01/03 13:20:59;;;;;;;7.75;2.25;;;;;;;;;;5035810;28;20052;-69
2022/01/03 13:24:01;;;;;;;4.30;1.70;;;;;;;;;;5035746;28;20032;-69
2022/01/03 13:27:25;;;;;;;8.13;1.90;;;;;;;;;;5041693;28;20033;-69
2022/01/03 13:30:10;;;;;;;7.43;2.10;;;;;;;;;;4993659;28;20105;-73
2022/01/03 13:32:56;;;;;;;7.85;2.00;;;;;;;;;;4986324;28;20104;-72
2022/01/03 13:35:41;;;;;;;6.43;1.77;;;;;;;;;;4994215;28;20121;-71
2022/01/03 13:38:30;;;;;;;6.88;1.75;;;;;;;;;;4987687;28;20030;-70
2022/01/03 13:41:16;;;;;;;7.18;2.13;;;;;;;;;;4990658;28;20525;-70
2022/01/03 13:44:01;;;;;;;5.13;2.03;;;;;;;;;;4994977;28;20057;-70
2022/01/03 13:49:59;;;;;;;5.78;2.53;;;;;;;;;;4990823;28;20025;-64
2022/01/03 13:52:47;;;;;;;5.70;1.75;;;;;;;;;;4994795;28;20030;-72
2022/01/03 13:55:33;;;;;;;10.30;2.13;;;;;;;;;;4993143;28;20193;-72
2022/01/03 13:58:20;;;;;;;6.22;1.92;;;;;;;;;;4978489;28;20192;-73
2022/01/03 14:01:05;;;;;;;6.55;2.40;;;;;;;;;;5024987;28;20384;-70
2022/01/03 14:03:55;;;;;;;5.55;1.88;;;;;;;;;;5054128;28;20024;-69
2022/01/03 14:06:40;;;;;;;;;;;;;;;;;;5034796;28;20155;-62
2022/01/03 14:09:25;;;;;;;6.15;2.10;;;;;;;;;;5021593;28;19905;-74
2022/01/03 14:12:11;;;;;;;5.00;1.83;;;;;;;;;;5034062;28;20025;-73
2022/01/03 14:14:57;;;;;;;10.30;1.73;;;;;;;;;;5022043;28;20028;-72
2022/01/03 14:17:50;;;;;;;8.55;2.90;;;;;;;;;;5028944;28;20044;-74
2022/01/03 14:20:35;;;;;;;6.30;2.40;;;;;;;;;;5018925;28;20096;-73
2022/01/03 14:23:21;;;;;;;5.68;1.88;;;;;;;;;;5038498;28;20021;-75
2022/01/03 14:26:10;;;;;;;8.02;1.75;;;;;;;;;;5035644;28;20033;-65
2022/01/03 14:29:16;;;;;;;7.63;1.60;;;;;;;;;;5015622;28;20021;-67
2022/01/03 14:32:10;;;;;;;4.03;1.38;;;;;;;;;;5015379;28;20029;-66
2022/01/03 14:34:55;;;;;;;5.20;1.90;;;;;;;;;;5015220;28;20037;-68
2022/01/03 14:37:40;;;;;;;5.53;2.08;;;;;;;;;;5020367;28;20542;-66
2022/01/03 14:40:36;;;;;;;6.10;1.58;;;;;;;;;;5018321;28;20531;-67
2022/01/03 14:43:23;;;;;;;6.50;1.65;;;;;;;;;;5027846;28;20049;-64
2022/01/03 14:46:09;;;;;;;5.43;1.65;;;;;;;;;;5035031;28;20032;-74
2022/01/03 14:48:54;;;;;;;5.20;1.50;;;;;;;;;;5027725;28;20018;-74
2022/01/03 14:51:41;;;;;;;6.07;1.73;;;;;;;;;;5001720;28;20033;-73
2022/01/03 14:54:35;;;;;;;6.75;1.75;;;;;;;;;;5034628;28;20125;-73
2022/01/03 14:57:26;;;;;;;4.95;1.55;;;;;;;;;;5001252;28;20534;-74
2022/01/03 15:00:13;;;;;;;5.97;1.85;;;;;;;;;;5020345;28;20075;-75
2022/01/03 15:03:00;;;;;;;11.45;3.83;;;;;;;;;;5028145;28;20530;-77
2022/01/03 15:05:46;;;;;;;5.75;1.70;;;;;;;;;;5035016;28;20070;-69
2022/01/03 15:08:33;;;;;;;5.68;1.90;;;;;;;;;;5033553;28;20021;-72
2022/01/03 15:11:19;;;;;;;9.05;1.75;;;;;;;;;;5034921;28;20068;-69
2022/01/03 15:14:04;;;;;;;5.38;1.80;;;;;;;;;;5014431;28;20029;-68
2022/01/03 15:16:51;;;;;;;6.55;2.38;;;;;;;;;;5015220;28;20048;-70
2022/01/03 15:19:36;;;;;;;7.13;1.60;;;;;;;;;;5038813;28;20047;-66
2022/01/03 15:22:21;;;;;;;7.40;2.13;;;;;;;;;;5034507;28;20025;-74
2022/01/03 15:25:07;;;;;;;6.25;1.77;;;;;;;;;;5038304;28;20045;-67
2022/01/03 15:27:53;;;;;;;7.28;2.20;;;;;;;;;;5036136;28;20048;-70
2022/01/03 15:30:39;;;;;;;4.57;1.80;;;;;;;;;;5027156;28;20441;-69
2022/01/03 15:33:25;;;;;;;6.20;1.95;;;;;;;;;;5022467;28;20104;-68
2022/01/03 15:36:10;;;;;;;7.57;2.28;;;;;;;;;;5033217;28;20036;-67
2022/01/03 15:38:56;;;;;;;7.82;2.05;;;;;;;;;;5033997;28;20034;-75
2022/01/03 15:41:41;;;;;;;4.78;1.33;;;;;;;;;;5015217;28;20500;-64
2022/01/03 15:44:26;;;;;;;4.72;1.83;;;;;;;;;;5015713;28;20029;-63
2022/01/03 15:47:12;;;;;;;9.05;1.92;;;;;;;;;;5034180;28;20029;-66
2022/01/03 15:49:58;;;;;;;5.60;1.92;;;;;;;;;;5032795;28;20032;-62
2022/01/03 15:52:43;;;;;;;6.50;1.98;;;;;;;;;;5034101;28;20577;-62
2022/01/03 15:55:29;;;;;;;6.10;1.70;;;;;;;;;;5026674;28;20116;-63
2022/01/03 15:58:15;;;;;;;5.22;1.50;;;;;;;;;;5022536;28;20489;-76
2022/01/03 16:01:01;;;;;;;5.95;2.25;;;;;;;;;;5032867;28;20027;-65
2022/01/03 16:03:46;;;;;;;9.93;1.98;;;;;;;;;;5036370;28;20036;-66
2022/01/03 16:06:31;;;;;;;3.75;1.58;;;;;;;;;;5036450;28;20476;-65
2022/01/03 16:09:19;;;;;;;8.63;5.13;;;;;;;;;;5037743;28;20029;-65
2022/01/03 16:12:05;;;;;;;6.25;2.38;;;;;;;;;;5030603;28;20040;-66
2022/01/03 16:14:50;;;;;;;9.18;2.40;;;;;;;;;;5004471;28;20031;-69
2022/01/03 16:17:36;;;;;;;5.35;1.80;;;;;;;;;;5021648;28;20368;-69
2022/01/03 16:20:21;;;;;;;5.03;1.50;;;;;;;;;;5023872;28;20024;-77
2022/01/03 16:23:06;;;;;;;6.70;2.30;;;;;;;;;;5021531;28;20024;-73
2022/01/03 16:25:52;;;;;;;6.75;1.70;;;;;;;;;;5017667;28;20386;-75
2022/01/03 16:28:37;;;;;;;4.85;1.50;;;;;;;;;;5026895;28;20093;-75
2022/01/03 16:31:22;;;;;;;6.38;1.92;;;;;;;;;;5026254;28;20059;-75
2022/01/03 16:34:08;;;;;;;6.80;1.90;;;;;;;;;;5037527;28;20072;-68
2022/01/03 16:36:53;;;;;;;3.95;1.60;;;;;;;;;;5036362;28;20044;-68
2022/01/03 16:39:38;;;;;;;7.70;2.00;;;;;;;;;;5036999;28;20032;-68
2022/01/03 16:42:23;;;;;;;5.57;1.92;;;;;;;;;;5019207;28;20468;-69
2022/01/03 16:45:09;;;;;;;5.90;2.22;;;;;;;;;;5017296;28;20052;-68
2022/01/03 16:47:54;;;;;;;4.40;1.40;;;;;;;;;;5007454;28;20061;-70
2022/01/03 16:50:40;;;;;;;5.47;2.38;;;;;;;;;;5017458;28;20022;-69
2022/01/03 16:53:25;;;;;;;7.03;2.80;;;;;;;;;;5015530;28;20193;-63
2022/01/03 16:56:10;;;;;;;6.60;3.05;;;;;;;;;;5037053;28;20361;-66
2022/01/03 16:58:55;;;;;;;7.90;2.00;;;;;;;;;;5035642;28;20033;-65
2022/01/03 17:01:41;;;;;;;5.60;1.83;;;;;;;;;;5053912;28;20091;-66
2022/01/03 17:04:26;;;;;;;7.00;2.25;;;;;;;;;;5015200;28;20033;-64